sensor_id;sensor_type;location;lat;lon;timestamp;pressure;altitude;pressure_sealevel;temperature;humidity
70248;BME280;57641;51.416;5.506;2023-07-29T00:02:16;100818.66;;;23.99;61.41
70248;BME280;57641;51.416;5.506;2023-07-29T00:04:42;100807.66;;;23.94;61.66
70248;BME280;57641;51.416;5.506;2023-07-29T00:07:07;100807.66;;;23.94;61.70
70248;BME280;57641;51.416;5.506;2023-07-29T00:09:33;100810.63;;;23.92;61.81
70248;BME280;57641;51.416;5.506;2023-07-29T00:11:58;100821.66;;;23.86;61.95
70248;BME280;57641;51.416;5.506;2023-07-29T00:14:23;100820.59;;;23.87;62.32
70248;BME280;57641;51.416;5.506;2023-07-29T00:16:49;100810.84;;;23.91;62.42
70248;BME280;57641;51.416;5.506;2023-07-29T00:19:14;100812.75;;;23.90;62.68
70248;BME280;57641;51.416;5.506;2023-07-29T00:21:40;100814.50;;;23.96;62.77
70248;BME280;57641;51.416;5.506;2023-07-29T00:24:06;100808.50;;;23.94;62.98
70248;BME280;57641;51.416;5.506;2023-07-29T00:26:31;100810.81;;;24.03;62.90
70248;BME280;57641;51.416;5.506;2023-07-29T00:28:58;100806.81;;;24.05;62.92
70248;BME280;57641;51.416;5.506;2023-07-29T00:31:23;100806.22;;;24.03;63.13
70248;BME280;57641;51.416;5.506;2023-07-29T00:33:49;100810.09;;;24.07;63.08
70248;BME280;57641;51.416;5.506;2023-07-29T00:36:15;100804.91;;;24.06;62.97
70248;BME280;57641;51.416;5.506;2023-07-29T00:38:40;100788.22;;;24.02;63.01
70248;BME280;57641;51.416;5.506;2023-07-29T00:41:06;100787.75;;;24.05;62.63
70248;BME280;57641;51.416;5.506;2023-07-29T00:43:32;100786.06;;;24.04;62.79
70248;BME280;57641;51.416;5.506;2023-07-29T00:45:57;100782.75;;;24.02;62.85
70248;BME280;57641;51.416;5.506;2023-07-29T00:48:25;100790.69;;;24.04;62.76
70248;BME280;57641;51.416;5.506;2023-07-29T00:50:51;100774.59;;;24.02;62.55
70248;BME280;57641;51.416;5.506;2023-07-29T00:53:17;100777.81;;;23.99;62.80
70248;BME280;57641;51.416;5.506;2023-07-29T00:55:42;100776.47;;;24.02;62.52
70248;BME280;57641;51.416;5.506;2023-07-29T00:58:08;100776.97;;;23.98;62.68
70248;BME280;57641;51.416;5.506;2023-07-29T01:00:33;100779.84;;;23.92;62.43
70248;BME280;57641;51.416;5.506;2023-07-29T01:02:59;100771.66;;;23.92;62.62
70248;BME280;57641;51.416;5.506;2023-07-29T01:05:30;100781.97;;;23.90;62.20
70248;BME280;57641;51.416;5.506;2023-07-29T01:08:14;100780.44;;;23.94;62.81
70248;BME280;57641;51.416;5.506;2023-07-29T01:14:04;100783.53;;;23.86;62.63
70248;BME280;57641;51.416;5.506;2023-07-29T01:16:42;100781.78;;;23.80;62.92
70248;BME280;57641;51.416;5.506;2023-07-29T01:19:33;100780.47;;;23.82;62.89
70248;BME280;57641;51.416;5.506;2023-07-29T01:22:06;100775.25;;;23.81;62.89
70248;BME280;57641;51.416;5.506;2023-07-29T01:24:33;100783.44;;;23.81;63.28
70248;BME280;57641;51.416;5.506;2023-07-29T01:26:58;100783.44;;;23.81;62.92
70248;BME280;57641;51.416;5.506;2023-07-29T01:29:27;100783.09;;;23.77;62.77
70248;BME280;57641;51.416;5.506;2023-07-29T01:31:54;100793.66;;;23.74;63.27
70248;BME280;57641;51.416;5.506;2023-07-29T01:37:34;100799.25;;;23.55;63.29
70248;BME280;57641;51.416;5.506;2023-07-29T01:40:00;100794.63;;;23.56;63.19
70248;BME280;57641;51.416;5.506;2023-07-29T01:42:27;100798.50;;;23.60;62.66
70248;BME280;57641;51.416;5.506;2023-07-29T01:44:53;100790.94;;;23.62;62.74
70248;BME280;57641;51.416;5.506;2023-07-29T01:47:18;100801.47;;;23.58;62.43
70248;BME280;57641;51.416;5.506;2023-07-29T01:49:44;100803.63;;;23.56;62.46
70248;BME280;57641;51.416;5.506;2023-07-29T01:52:09;100813.09;;;23.31;62.23
70248;BME280;57641;51.416;5.506;2023-07-29T01:54:35;100805.50;;;23.56;62.11
70248;BME280;57641;51.416;5.506;2023-07-29T01:57:00;100810.47;;;23.36;62.11
70248;BME280;57641;51.416;5.506;2023-07-29T01:59:26;100814.16;;;23.41;61.82
70248;BME280;57641;51.416;5.506;2023-07-29T02:01:51;100818.50;;;23.42;61.88
70248;BME280;57641;51.416;5.506;2023-07-29T02:04:17;100816.19;;;23.46;61.34
70248;BME280;57641;51.416;5.506;2023-07-29T02:06:43;100813.06;;;23.42;61.11
70248;BME280;57641;51.416;5.506;2023-07-29T02:09:11;100806.69;;;23.48;60.95
70248;BME280;57641;51.416;5.506;2023-07-29T02:11:36;100809.19;;;23.50;60.66
70248;BME280;57641;51.416;5.506;2023-07-29T02:14:02;100811.06;;;23.49;60.57
70248;BME280;57641;51.416;5.506;2023-07-29T02:16:28;100808.13;;;23.51;60.09
70248;BME280;57641;51.416;5.506;2023-07-29T02:18:54;100807.28;;;23.27;60.41
70248;BME280;57641;51.416;5.506;2023-07-29T02:21:19;100806.22;;;23.40;60.61
70248;BME280;57641;51.416;5.506;2023-07-29T02:23:45;100794.59;;;23.44;60.23
70248;BME280;57641;51.416;5.506;2023-07-29T02:26:11;100787.91;;;23.47;60.69
70248;BME280;57641;51.416;5.506;2023-07-29T02:28:36;100788.34;;;23.44;60.55
70248;BME280;57641;51.416;5.506;2023-07-29T02:31:22;100790.94;;;23.39;60.49
70248;BME280;57641;51.416;5.506;2023-07-29T02:33:48;100790.38;;;23.37;60.52
70248;BME280;57641;51.416;5.506;2023-07-29T02:36:14;100799.84;;;23.34;60.50
70248;BME280;57641;51.416;5.506;2023-07-29T02:38:40;100799.00;;;23.22;60.08
70248;BME280;57641;51.416;5.506;2023-07-29T02:41:08;100791.31;;;23.31;60.14
70248;BME280;57641;51.416;5.506;2023-07-29T02:43:35;100789.06;;;23.16;59.87
70248;BME280;57641;51.416;5.506;2023-07-29T02:46:01;100794.50;;;23.28;59.59
70248;BME280;57641;51.416;5.506;2023-07-29T02:48:28;100796.06;;;23.35;59.52
70248;BME280;57641;51.416;5.506;2023-07-29T02:50:54;100785.28;;;23.29;58.70
70248;BME280;57641;51.416;5.506;2023-07-29T02:53:20;100783.88;;;23.26;59.36
70248;BME280;57641;51.416;5.506;2023-07-29T02:55:45;100792.84;;;23.27;59.35
70248;BME280;57641;51.416;5.506;2023-07-29T02:58:11;100787.41;;;23.27;59.20
70248;BME280;57641;51.416;5.506;2023-07-29T03:00:36;100794.66;;;23.09;58.84
70248;BME280;57641;51.416;5.506;2023-07-29T03:03:02;100783.78;;;23.21;59.16
70248;BME280;57641;51.416;5.506;2023-07-29T03:05:28;100784.84;;;23.20;58.65
70248;BME280;57641;51.416;5.506;2023-07-29T03:07:53;100775.72;;;23.14;58.92
70248;BME280;57641;51.416;5.506;2023-07-29T03:10:19;100782.34;;;23.07;58.47
70248;BME280;57641;51.416;5.506;2023-07-29T03:12:46;100783.66;;;23.04;58.79
70248;BME280;57641;51.416;5.506;2023-07-29T03:15:12;100781.75;;;23.16;58.42
70248;BME280;57641;51.416;5.506;2023-07-29T03:17:37;100769.56;;;23.07;59.35
70248;BME280;57641;51.416;5.506;2023-07-29T03:20:03;100784.84;;;23.08;59.06
70248;BME280;57641;51.416;5.506;2023-07-29T03:22:29;100789.44;;;23.08;58.76
70248;BME280;57641;51.416;5.506;2023-07-29T03:24:55;100789.53;;;23.01;59.10
70248;BME280;57641;51.416;5.506;2023-07-29T03:27:20;100794.84;;;22.85;58.92
70248;BME280;57641;51.416;5.506;2023-07-29T03:29:46;100794.75;;;22.91;59.26
70248;BME280;57641;51.416;5.506;2023-07-29T03:32:11;100796.06;;;22.89;59.52
70248;BME280;57641;51.416;5.506;2023-07-29T03:34:37;100794.41;;;22.88;59.31
70248;BME280;57641;51.416;5.506;2023-07-29T03:37:02;100782.22;;;22.90;59.47
70248;BME280;57641;51.416;5.506;2023-07-29T03:39:28;100785.41;;;22.87;59.40
70248;BME280;57641;51.416;5.506;2023-07-29T03:41:53;100797.00;;;22.83;59.37
70248;BME280;57641;51.416;5.506;2023-07-29T03:44:19;100799.00;;;22.76;59.49
70248;BME280;57641;51.416;5.506;2023-07-29T03:46:44;100803.97;;;22.79;59.87
70248;BME280;57641;51.416;5.506;2023-07-29T03:49:10;100795.44;;;22.75;59.90
70248;BME280;57641;51.416;5.506;2023-07-29T03:51:36;100801.94;;;22.74;59.80
70248;BME280;57641;51.416;5.506;2023-07-29T03:54:01;100803.38;;;22.77;59.95
70248;BME280;57641;51.416;5.506;2023-07-29T03:56:27;100790.84;;;22.76;60.15
70248;BME280;57641;51.416;5.506;2023-07-29T03:58:53;100788.34;;;22.74;59.75
70248;BME280;57641;51.416;5.506;2023-07-29T04:01:19;100773.94;;;22.73;59.95
70248;BME280;57641;51.416;5.506;2023-07-29T04:03:45;100759.75;;;22.71;59.91
70248;BME280;57641;51.416;5.506;2023-07-29T04:06:13;100752.50;;;22.65;60.46
70248;BME280;57641;51.416;5.506;2023-07-29T04:08:39;100754.94;;;22.73;60.17
70248;BME280;57641;51.416;5.506;2023-07-29T04:11:06;100751.59;;;22.71;59.75
70248;BME280;57641;51.416;5.506;2023-07-29T04:13:31;100753.50;;;22.71;59.85
70248;BME280;57641;51.416;5.506;2023-07-29T04:15:57;100750.00;;;22.64;59.98
70248;BME280;57641;51.416;5.506;2023-07-29T04:18:22;100751.91;;;22.63;60.15
70248;BME280;57641;51.416;5.506;2023-07-29T04:20:48;100765.97;;;22.60;59.78
70248;BME280;57641;51.416;5.506;2023-07-29T04:23:13;100775.31;;;22.64;59.36
70248;BME280;57641;51.416;5.506;2023-07-29T04:25:39;100802.09;;;22.49;59.79
70248;BME280;57641;51.416;5.506;2023-07-29T04:28:04;100800.31;;;22.43;60.24
70248;BME280;57641;51.416;5.506;2023-07-29T04:30:30;100807.34;;;22.32;59.99
70248;BME280;57641;51.416;5.506;2023-07-29T04:32:55;100808.09;;;22.40;60.17
70248;BME280;57641;51.416;5.506;2023-07-29T04:35:21;100812.00;;;22.44;59.95
70248;BME280;57641;51.416;5.506;2023-07-29T04:37:46;100821.22;;;22.43;60.11
70248;BME280;57641;51.416;5.506;2023-07-29T04:40:13;100829.09;;;22.32;60.24
70248;BME280;57641;51.416;5.506;2023-07-29T04:42:40;100821.63;;;22.28;60.24
70248;BME280;57641;51.416;5.506;2023-07-29T04:45:06;100821.63;;;22.28;60.58
70248;BME280;57641;51.416;5.506;2023-07-29T04:47:31;100814.47;;;22.33;60.68
70248;BME280;57641;51.416;5.506;2023-07-29T04:49:57;100815.63;;;22.26;60.41
70248;BME280;57641;51.416;5.506;2023-07-29T04:52:22;100803.59;;;22.33;60.31
70248;BME280;57641;51.416;5.506;2023-07-29T04:54:48;100815.00;;;22.24;60.30
70248;BME280;57641;51.416;5.506;2023-07-29T04:57:13;100814.03;;;22.18;59.84
70248;BME280;57641;51.416;5.506;2023-07-29T04:59:39;100814.94;;;22.30;59.89
70248;BME280;57641;51.416;5.506;2023-07-29T05:02:05;100820.38;;;22.30;60.03
70248;BME280;57641;51.416;5.506;2023-07-29T05:04:30;100823.91;;;22.31;59.90
70248;BME280;57641;51.416;5.506;2023-07-29T05:06:56;100827.13;;;22.10;60.57
70248;BME280;57641;51.416;5.506;2023-07-29T05:09:21;100836.59;;;22.19;60.03
70248;BME280;57641;51.416;5.506;2023-07-29T05:11:46;100839.19;;;22.14;59.96
70248;BME280;57641;51.416;5.506;2023-07-29T05:14:13;100837.50;;;22.31;59.82
70248;BME280;57641;51.416;5.506;2023-07-29T05:16:39;100838.41;;;22.25;59.94
70248;BME280;57641;51.416;5.506;2023-07-29T05:19:05;100838.53;;;22.30;59.82
70248;BME280;57641;51.416;5.506;2023-07-29T05:21:30;100844.56;;;22.32;59.85
70248;BME280;57641;51.416;5.506;2023-07-29T05:23:56;100840.16;;;22.19;59.74
70248;BME280;57641;51.416;5.506;2023-07-29T05:26:22;100840.50;;;22.23;59.12
70248;BME280;57641;51.416;5.506;2023-07-29T05:28:48;100831.44;;;22.29;59.61
70248;BME280;57641;51.416;5.506;2023-07-29T05:31:13;100837.72;;;22.29;59.46
70248;BME280;57641;51.416;5.506;2023-07-29T05:33:39;100839.91;;;22.21;59.96
70248;BME280;57641;51.416;5.506;2023-07-29T05:36:05;100832.59;;;22.21;59.54
70248;BME280;57641;51.416;5.506;2023-07-29T05:38:30;100839.00;;;22.27;59.39
70248;BME280;57641;51.416;5.506;2023-07-29T05:40:56;100840.06;;;22.26;58.90
70248;BME280;57641;51.416;5.506;2023-07-29T05:43:24;100842.19;;;22.24;59.36
70248;BME280;57641;51.416;5.506;2023-07-29T05:45:50;100833.81;;;22.25;59.63
70248;BME280;57641;51.416;5.506;2023-07-29T05:48:16;100835.72;;;22.37;59.59
70248;BME280;57641;51.416;5.506;2023-07-29T05:50:42;100838.84;;;22.22;59.48
70248;BME280;57641;51.416;5.506;2023-07-29T05:53:07;100839.25;;;22.25;59.38
70248;BME280;57641;51.416;5.506;2023-07-29T05:55:33;100836.94;;;22.41;59.49
70248;BME280;57641;51.416;5.506;2023-07-29T05:57:58;100835.13;;;22.35;59.13
70248;BME280;57641;51.416;5.506;2023-07-29T06:00:24;100825.38;;;22.45;59.12
70248;BME280;57641;51.416;5.506;2023-07-29T06:02:49;100833.38;;;22.40;59.25
70248;BME280;57641;51.416;5.506;2023-07-29T06:05:15;100833.56;;;22.57;58.88
70248;BME280;57641;51.416;5.506;2023-07-29T06:07:40;100830.94;;;22.50;59.10
70248;BME280;57641;51.416;5.506;2023-07-29T06:10:10;100827.88;;;22.58;58.33
70248;BME280;57641;51.416;5.506;2023-07-29T06:12:37;100821.88;;;22.68;58.41
70248;BME280;57641;51.416;5.506;2023-07-29T06:15:04;100816.00;;;22.71;58.27
70248;BME280;57641;51.416;5.506;2023-07-29T06:17:30;100827.34;;;22.80;58.03
70248;BME280;57641;51.416;5.506;2023-07-29T06:19:55;100822.03;;;22.73;58.29
70248;BME280;57641;51.416;5.506;2023-07-29T06:22:20;100824.06;;;22.78;57.30
70248;BME280;57641;51.416;5.506;2023-07-29T06:24:46;100828.81;;;22.52;58.65
70248;BME280;57641;51.416;5.506;2023-07-29T06:27:11;100828.91;;;22.87;57.83
70248;BME280;57641;51.416;5.506;2023-07-29T06:29:37;100832.47;;;22.99;57.58
70248;BME280;57641;51.416;5.506;2023-07-29T06:32:03;100835.09;;;22.94;57.77
70248;BME280;57641;51.416;5.506;2023-07-29T06:34:28;100836.13;;;22.93;57.46
70248;BME280;57641;51.416;5.506;2023-07-29T06:36:54;100836.72;;;23.07;56.87
70248;BME280;57641;51.416;5.506;2023-07-29T06:39:19;100839.09;;;22.92;57.91
70248;BME280;57641;51.416;5.506;2023-07-29T06:41:45;100840.50;;;23.06;57.52
70248;BME280;57641;51.416;5.506;2023-07-29T06:44:11;100835.88;;;22.95;57.52
70248;BME280;57641;51.416;5.506;2023-07-29T06:46:36;100840.63;;;23.11;57.42
70248;BME280;57641;51.416;5.506;2023-07-29T06:49:02;100848.09;;;23.15;57.65
70248;BME280;57641;51.416;5.506;2023-07-29T06:51:27;100851.41;;;23.17;57.51
70248;BME280;57641;51.416;5.506;2023-07-29T06:53:58;100850.56;;;23.17;56.94
70248;BME280;57641;51.416;5.506;2023-07-29T06:56:24;100860.63;;;23.28;56.76
70248;BME280;57641;51.416;5.506;2023-07-29T06:58:49;100856.03;;;23.29;57.33
70248;BME280;57641;51.416;5.506;2023-07-29T07:01:14;100863.34;;;23.28;57.75
70248;BME280;57641;51.416;5.506;2023-07-29T07:03:40;100855.56;;;23.32;57.08
70248;BME280;57641;51.416;5.506;2023-07-29T07:06:05;100863.81;;;23.02;57.26
70248;BME280;57641;51.416;5.506;2023-07-29T07:08:31;100859.22;;;23.14;57.14
70248;BME280;57641;51.416;5.506;2023-07-29T07:10:56;100856.13;;;23.22;56.54
70248;BME280;57641;51.416;5.506;2023-07-29T07:13:22;100860.63;;;23.40;56.95
70248;BME280;57641;51.416;5.506;2023-07-29T07:15:47;100863.13;;;23.41;56.05
70248;BME280;57641;51.416;5.506;2023-07-29T07:18:13;100858.16;;;23.62;55.79
70248;BME280;57641;51.416;5.506;2023-07-29T07:20:38;100863.13;;;23.53;55.24
70248;BME280;57641;51.416;5.506;2023-07-29T07:23:04;100857.00;;;23.58;55.72
70248;BME280;57641;51.416;5.506;2023-07-29T07:25:31;100868.44;;;23.71;55.47
70248;BME280;57641;51.416;5.506;2023-07-29T07:27:57;100863.84;;;23.72;55.01
70248;BME280;57641;51.416;5.506;2023-07-29T07:30:22;100862.19;;;23.59;55.77
70248;BME280;57641;51.416;5.506;2023-07-29T07:32:47;100865.28;;;23.63;55.71
70248;BME280;57641;51.416;5.506;2023-07-29T07:35:13;100877.22;;;23.73;55.79
70248;BME280;57641;51.416;5.506;2023-07-29T07:37:39;100881.47;;;23.34;55.44
70248;BME280;57641;51.416;5.506;2023-07-29T07:40:05;100876.50;;;23.54;55.43
70248;BME280;57641;51.416;5.506;2023-07-29T07:42:31;100873.56;;;23.68;55.16
70248;BME280;57641;51.416;5.506;2023-07-29T07:44:56;100875.78;;;23.82;54.77
70248;BME280;57641;51.416;5.506;2023-07-29T07:47:22;100865.94;;;23.81;54.84
70248;BME280;57641;51.416;5.506;2023-07-29T07:49:47;100875.97;;;24.04;54.56
70248;BME280;57641;51.416;5.506;2023-07-29T07:52:14;100876.63;;;24.11;55.08
70248;BME280;57641;51.416;5.506;2023-07-29T07:54:39;100876.09;;;23.86;54.96
70248;BME280;57641;51.416;5.506;2023-07-29T07:57:05;100881.41;;;24.04;55.47
70248;BME280;57641;51.416;5.506;2023-07-29T07:59:31;100880.16;;;23.83;55.81
70248;BME280;57641;51.416;5.506;2023-07-29T08:01:56;100880.34;;;24.05;54.87
70248;BME280;57641;51.416;5.506;2023-07-29T08:04:22;100873.66;;;23.84;55.28
70248;BME280;57641;51.416;5.506;2023-07-29T08:06:47;100877.66;;;23.82;54.67
70248;BME280;57641;51.416;5.506;2023-07-29T08:09:12;100877.03;;;24.03;54.45
70248;BME280;57641;51.416;5.506;2023-07-29T08:11:38;100875.06;;;23.75;54.26
70248;BME280;57641;51.416;5.506;2023-07-29T08:14:03;100868.56;;;24.28;53.41
70248;BME280;57641;51.416;5.506;2023-07-29T08:16:29;100879.50;;;24.16;53.57
70248;BME280;57641;51.416;5.506;2023-07-29T08:18:54;100881.88;;;24.01;53.93
70248;BME280;57641;51.416;5.506;2023-07-29T08:21:20;100877.75;;;24.38;52.95
70248;BME280;57641;51.416;5.506;2023-07-29T08:23:45;100871.00;;;24.41;53.19
70248;BME280;57641;51.416;5.506;2023-07-29T08:26:11;100873.41;;;24.54;52.67
70248;BME280;57641;51.416;5.506;2023-07-29T08:28:39;100886.97;;;24.09;53.49
70248;BME280;57641;51.416;5.506;2023-07-29T08:31:05;100888.00;;;24.31;52.97
70248;BME280;57641;51.416;5.506;2023-07-29T08:33:32;100884.78;;;24.34;52.85
70248;BME280;57641;51.416;5.506;2023-07-29T08:36:01;100882.47;;;24.43;53.46
70248;BME280;57641;51.416;5.506;2023-07-29T08:38:26;100883.84;;;24.29;53.57
70248;BME280;57641;51.416;5.506;2023-07-29T08:41:16;100876.50;;;24.29;53.77
70248;BME280;57641;51.416;5.506;2023-07-29T08:43:56;100884.41;;;24.43;52.95
70248;BME280;57641;51.416;5.506;2023-07-29T08:46:26;100880.19;;;24.52;52.22
70248;BME280;57641;51.416;5.506;2023-07-29T08:48:52;100886.47;;;24.24;52.42
70248;BME280;57641;51.416;5.506;2023-07-29T08:51:19;100882.66;;;23.73;52.93
70248;BME280;57641;51.416;5.506;2023-07-29T08:53:46;100875.84;;;23.99;53.68
70248;BME280;57641;51.416;5.506;2023-07-29T08:56:12;100884.25;;;24.21;52.61
70248;BME280;57641;51.416;5.506;2023-07-29T08:58:39;100872.56;;;24.37;52.53
70248;BME280;57641;51.416;5.506;2023-07-29T09:01:05;100878.97;;;24.59;52.58
70248;BME280;57641;51.416;5.506;2023-07-29T09:03:31;100868.47;;;24.51;52.42
70248;BME280;57641;51.416;5.506;2023-07-29T09:05:58;100858.25;;;24.75;53.73
70248;BME280;57641;51.416;5.506;2023-07-29T09:08:27;100864.44;;;24.99;52.25
70248;BME280;57641;51.416;5.506;2023-07-29T09:10:54;100866.72;;;25.07;51.51
70248;BME280;57641;51.416;5.506;2023-07-29T09:13:21;100866.66;;;25.18;51.47
70248;BME280;57641;51.416;5.506;2023-07-29T09:15:47;100873.69;;;24.69;52.32
70248;BME280;57641;51.416;5.506;2023-07-29T09:18:16;100877.59;;;24.73;52.12
70248;BME280;57641;51.416;5.506;2023-07-29T09:20:42;100862.69;;;24.93;52.08
70248;BME280;57641;51.416;5.506;2023-07-29T09:23:09;100876.44;;;24.86;51.24
70248;BME280;57641;51.416;5.506;2023-07-29T09:25:36;100869.44;;;25.23;51.55
70248;BME280;57641;51.416;5.506;2023-07-29T09:28:12;100876.81;;;25.06;50.52
70248;BME280;57641;51.416;5.506;2023-07-29T09:30:39;100861.69;;;24.99;51.74
70248;BME280;57641;51.416;5.506;2023-07-29T09:33:05;100852.69;;;25.15;50.17
70248;BME280;57641;51.416;5.506;2023-07-29T09:35:33;100861.94;;;24.97;51.56
70248;BME280;57641;51.416;5.506;2023-07-29T09:37:59;100860.44;;;25.06;50.68
70248;BME280;57641;51.416;5.506;2023-07-29T09:40:24;100856.31;;;25.04;50.51
70248;BME280;57641;51.416;5.506;2023-07-29T09:42:54;100872.94;;;25.36;50.97
70248;BME280;57641;51.416;5.506;2023-07-29T09:45:21;100857.28;;;25.48;51.19
70248;BME280;57641;51.416;5.506;2023-07-29T09:47:47;100865.88;;;25.40;52.63
70248;BME280;57641;51.416;5.506;2023-07-29T09:50:13;100871.75;;;25.48;50.67
70248;BME280;57641;51.416;5.506;2023-07-29T09:52:39;100875.81;;;25.29;50.72
70248;BME280;57641;51.416;5.506;2023-07-29T09:55:05;100870.03;;;25.09;51.30
70248;BME280;57641;51.416;5.506;2023-07-29T09:57:32;100870.34;;;25.46;50.83
70248;BME280;57641;51.416;5.506;2023-07-29T09:59:57;100861.72;;;25.54;51.05
70248;BME280;57641;51.416;5.506;2023-07-29T10:02:23;100871.03;;;25.19;50.87
70248;BME280;57641;51.416;5.506;2023-07-29T10:04:52;100873.75;;;25.36;50.38
70248;BME280;57641;51.416;5.506;2023-07-29T10:07:18;100869.97;;;25.04;50.38
70248;BME280;57641;51.416;5.506;2023-07-29T10:09:45;100871.19;;;25.30;51.37
70248;BME280;57641;51.416;5.506;2023-07-29T10:12:11;100868.97;;;25.27;51.25
70248;BME280;57641;51.416;5.506;2023-07-29T10:14:38;100864.34;;;25.27;51.77
70248;BME280;57641;51.416;5.506;2023-07-29T10:17:05;100863.41;;;25.38;51.94
70248;BME280;57641;51.416;5.506;2023-07-29T10:19:31;100857.91;;;25.55;51.34
70248;BME280;57641;51.416;5.506;2023-07-29T10:21:59;100860.81;;;25.65;50.85
70248;BME280;57641;51.416;5.506;2023-07-29T10:24:32;100859.09;;;25.81;51.24
70248;BME280;57641;51.416;5.506;2023-07-29T10:27:00;100858.56;;;25.79;50.98
70248;BME280;57641;51.416;5.506;2023-07-29T10:29:31;100856.97;;;25.83;50.25
70248;BME280;57641;51.416;5.506;2023-07-29T10:32:02;100855.13;;;25.88;50.22
70248;BME280;57641;51.416;5.506;2023-07-29T10:34:31;100851.94;;;25.96;50.15
70248;BME280;57641;51.416;5.506;2023-07-29T10:36:59;100855.00;;;26.00;49.22
70248;BME280;57641;51.416;5.506;2023-07-29T10:39:25;100847.28;;;25.75;48.82
70248;BME280;57641;51.416;5.506;2023-07-29T10:42:02;100846.72;;;25.73;48.97
70248;BME280;57641;51.416;5.506;2023-07-29T10:47:22;100837.59;;;25.84;49.51
70248;BME280;57641;51.416;5.506;2023-07-29T10:49:54;100837.94;;;25.71;49.48
70248;BME280;57641;51.416;5.506;2023-07-29T10:55:02;100833.91;;;25.74;49.94
70248;BME280;57641;51.416;5.506;2023-07-29T10:57:39;100833.31;;;25.93;50.63
70248;BME280;57641;51.416;5.506;2023-07-29T11:00:08;100832.94;;;26.06;49.84
70248;BME280;57641;51.416;5.506;2023-07-29T11:02:38;100838.91;;;26.03;49.54
70248;BME280;57641;51.416;5.506;2023-07-29T11:05:16;100832.75;;;25.91;49.83
70248;BME280;57641;51.416;5.506;2023-07-29T11:07:47;100836.69;;;26.00;49.76
70248;BME280;57641;51.416;5.506;2023-07-29T11:10:14;100834.16;;;25.94;49.19
70248;BME280;57641;51.416;5.506;2023-07-29T11:15:19;100831.25;;;26.00;48.64
70248;BME280;57641;51.416;5.506;2023-07-29T11:17:59;100836.03;;;26.15;50.07
70248;BME280;57641;51.416;5.506;2023-07-29T11:20:29;100825.00;;;26.27;49.28
70248;BME280;57641;51.416;5.506;2023-07-29T11:22:56;100827.50;;;26.33;49.18
70248;BME280;57641;51.416;5.506;2023-07-29T11:25:23;100825.78;;;26.22;49.43
70248;BME280;57641;51.416;5.506;2023-07-29T11:27:52;100829.31;;;26.23;49.06
70248;BME280;57641;51.416;5.506;2023-07-29T11:30:19;100827.31;;;25.53;50.36
70248;BME280;57641;51.416;5.506;2023-07-29T11:32:45;100824.16;;;25.61;50.76
70248;BME280;57641;51.416;5.506;2023-07-29T11:35:16;100822.97;;;25.74;51.35
70248;BME280;57641;51.416;5.506;2023-07-29T11:37:45;100824.94;;;26.00;51.49
70248;BME280;57641;51.416;5.506;2023-07-29T11:40:19;100843.91;;;25.30;53.09
70248;BME280;57641;51.416;5.506;2023-07-29T11:42:46;100832.44;;;25.88;53.18
70248;BME280;57641;51.416;5.506;2023-07-29T11:45:14;100839.56;;;26.11;53.25
70248;BME280;57641;51.416;5.506;2023-07-29T11:47:40;100826.91;;;26.04;52.25
70248;BME280;57641;51.416;5.506;2023-07-29T11:50:10;100822.19;;;26.22;51.44
70248;BME280;57641;51.416;5.506;2023-07-29T11:52:37;100826.56;;;26.23;52.80
70248;BME280;57641;51.416;5.506;2023-07-29T11:55:05;100822.44;;;26.20;51.24
70248;BME280;57641;51.416;5.506;2023-07-29T11:57:33;100816.38;;;26.18;50.80
70248;BME280;57641;51.416;5.506;2023-07-29T12:00:02;100811.94;;;26.34;50.92
70248;BME280;57641;51.416;5.506;2023-07-29T12:02:29;100822.38;;;26.37;51.76
70248;BME280;57641;51.416;5.506;2023-07-29T12:04:56;100822.56;;;26.30;51.75
70248;BME280;57641;51.416;5.506;2023-07-29T12:07:22;100819.06;;;26.35;53.12
70248;BME280;57641;51.416;5.506;2023-07-29T12:09:49;100827.16;;;26.25;51.44
70248;BME280;57641;51.416;5.506;2023-07-29T12:12:16;100831.28;;;26.05;51.61
70248;BME280;57641;51.416;5.506;2023-07-29T12:14:45;100825.56;;;26.07;51.85
70248;BME280;57641;51.416;5.506;2023-07-29T12:17:14;100838.03;;;25.98;52.63
70248;BME280;57641;51.416;5.506;2023-07-29T12:19:42;100828.44;;;25.95;54.53
70248;BME280;57641;51.416;5.506;2023-07-29T12:22:09;100829.81;;;25.98;56.03
70248;BME280;57641;51.416;5.506;2023-07-29T12:24:39;100827.81;;;25.88;55.67
70248;BME280;57641;51.416;5.506;2023-07-29T12:27:10;100824.19;;;25.83;56.14
70248;BME280;57641;51.416;5.506;2023-07-29T12:29:40;100829.06;;;25.81;56.58
70248;BME280;57641;51.416;5.506;2023-07-29T12:32:07;100852.56;;;25.82;57.22
70248;BME280;57641;51.416;5.506;2023-07-29T12:34:33;100858.97;;;25.71;58.16
70248;BME280;57641;51.416;5.506;2023-07-29T12:36:59;100893.78;;;25.25;60.05
70248;BME280;57641;51.416;5.506;2023-07-29T12:39:29;100926.34;;;24.98;59.42
70248;BME280;57641;51.416;5.506;2023-07-29T12:41:56;100941.13;;;23.71;58.74
70248;BME280;57641;51.416;5.506;2023-07-29T12:44:24;100900.72;;;24.03;57.99
70248;BME280;57641;51.416;5.506;2023-07-29T12:46:50;100892.81;;;23.89;58.73
70248;BME280;57641;51.416;5.506;2023-07-29T12:49:16;100893.63;;;23.90;58.97
70248;BME280;57641;51.416;5.506;2023-07-29T12:51:42;100905.94;;;23.81;59.18
70248;BME280;57641;51.416;5.506;2023-07-29T12:54:08;100896.28;;;23.73;59.18
70248;BME280;57641;51.416;5.506;2023-07-29T12:56:34;100895.16;;;23.86;58.99
70248;BME280;57641;51.416;5.506;2023-07-29T12:59:00;100895.06;;;23.81;60.91
70248;BME280;57641;51.416;5.506;2023-07-29T13:01:27;100895.28;;;23.91;60.39
70248;BME280;57641;51.416;5.506;2023-07-29T13:03:54;100898.16;;;23.73;59.91